Time;durP1;ratioP1;P1;durP2;ratioP2;P2;SDS_P1;SDS_P2;PMS_P1;PMS_P2;Temp;Humidity;BMP_temperature;BMP_pressure;BME280_temperature;BME280_humidity;BME280_pressure;Samples;Min_cycle;Max_cycle;Signal;HPM_P1;HPM_P2
2022/01/19 00:00:05;;;;;;;;;;;;;;;;;;5133878;27;19920;-72
2022/01/19 00:02:30;;;;;;;;;;;;;;;;;;5134733;27;19916;-72
2022/01/19 00:04:55;;;;;;;;;;;;;;;;;;5099562;28;20387;-72
2022/01/19 00:07:21;;;;;;;;;;;;;;;;;;5134488;27;19919;-72
2022/01/19 00:09:46;;;;;;;;;;;;;;;;;;5134761;28;20477;-72
2022/01/19 00:12:11;;;;;;;;;;;;;;;;;;5134908;28;20329;-72
2022/01/19 00:14:36;;;;;;;;;;;;;;;;;;5134610;28;20353;-72
2022/01/19 00:17:02;;;;;;;;;;;;;;;;;;5134609;28;20055;-72
2022/01/19 00:19:27;;;;;;;;;;;;;;;;;;5133800;27;19953;-72
2022/01/19 00:21:52;;;;;;;;;;;;;;;;;;5134527;28;19968;-72
2022/01/19 00:24:18;;;;;;;;;;;;;;;;;;5134667;28;19965;-72
2022/01/19 00:26:43;;;;;;;;;;;;;;;;;;5134516;28;19959;-72
2022/01/19 00:29:08;;;;;;;;;;;;;;;;;;5134608;27;20385;-72
2022/01/19 00:31:34;;;;;;;;;;;;;;;;;;5134272;28;20389;-72
2022/01/19 00:33:59;;;;;;;;;;;;;;;;;;5134337;28;19920;-72
2022/01/19 00:36:26;;;;;;;;;;;;;;;;;;5134162;28;19969;-72
2022/01/19 00:38:52;;;;;;;;;;;;;;;;;;5116085;28;19919;-72
2022/01/19 00:41:17;;;;;;;;;;;;;;;;;;5115852;28;20400;-72
2022/01/19 00:43:43;;;;;;;;;;;;;;;;;;5115860;28;19915;-72
2022/01/19 00:46:10;;;;;;;;;;;;;;;;;;5115632;28;20482;-72
2022/01/19 00:48:36;;;;;;;;;;;;;;;;;;5134368;27;19960;-72
2022/01/19 00:51:02;;;;;;;;;;;;;;;;;;5134445;28;19922;-72
2022/01/19 00:53:28;;;;;;;;;;;;;;;;;;5134186;28;19926;-72
2022/01/19 00:55:53;;;;;;;;;;;;;;;;;;5115162;28;19916;-72
2022/01/19 00:58:18;;;;;;;;;;;;;;;;;;5115836;28;19916;-72
2022/01/19 01:00:44;;;;;;;;;;;;;;;;;;5115506;28;20265;-72
2022/01/19 01:03:09;;;;;;;;;;;;;;;;;;5134356;28;19919;-72
2022/01/19 01:05:35;;;;;;;;;;;;;;;;;;5133900;28;19967;-72
2022/01/19 01:08:01;;;;;;;;;;;;;;;;;;5133972;27;19950;-72
2022/01/19 01:10:26;;;;;;;;;;;;;;;;;;5134204;27;20433;-72
2022/01/19 01:12:54;;;;;;;;;;;;;;;;;;5137557;27;19911;-72
2022/01/19 01:15:30;;;;;;;;;;;;;;;;;;5119392;27;19923;-72
2022/01/19 01:20:36;;;;;;;;;;;;;;;;;;5137719;27;19969;-72
2022/01/19 01:23:01;;;;;;;;;;;;;;;;;;5137821;27;19972;-72
2022/01/19 01:25:27;;;;;;;;;;;;;;;;;;5137438;27;19919;-72
2022/01/19 01:27:52;;;;;;;;;;;;;;;;;;5136981;27;20014;-72
2022/01/19 01:30:19;;;;;;;;;;;;;;;;;;5118965;27;19915;-72
2022/01/19 01:32:45;;;;;;;;;;;;;;;;;;5137538;27;19915;-72
2022/01/19 01:35:10;;;;;;;;;;;;;;;;;;5137546;27;19984;-72
2022/01/19 01:37:36;;;;;;;;;;;;;;;;;;5118842;27;20296;-72
2022/01/19 01:40:03;;;;;;;;;;;;;;;;;;5118833;27;19919;-72
2022/01/19 01:42:29;;;;;;;;;;;;;;;;;;5137486;27;19971;-72
2022/01/19 01:44:58;;;;;;;;;;;;;;;;;;5118632;27;20006;-72
2022/01/19 01:47:25;;;;;;;;;;;;;;;;;;5118262;27;20387;-72
2022/01/19 01:55:07;;;;;;;;;;;;;;;;;;5115364;28;19916;-72
2022/01/19 01:57:32;;;;;;;;;;;;;;;;;;5114790;28;19920;-72
2022/01/19 01:59:58;;;;;;;;;;;;;;;;;;5114948;28;20508;-72
2022/01/19 02:02:42;;;;;;;;;;;;;;;;;;5116433;28;20342;-72
2022/01/19 02:05:11;;;;;;;;;;;;;;;;;;5114656;28;19920;-72
2022/01/19 02:10:38;;;;;;;;;;;;;;;;;;5106911;28;19915;-72
2022/01/19 02:23:50;;;;;;;;;;;;;;;;;;5114868;28;19915;-72
2022/01/19 02:26:25;;;;;;;;;;;;;;;;;;5114374;28;19916;-72
2022/01/19 02:29:00;;;;;;;;;;;;;;;;;;5115361;28;19916;-72
2022/01/19 02:31:55;;;;;;;;;;;;;;;;;;5097636;28;19961;-72
2022/01/19 02:42:44;;;;;;;;;;;;;;;;;;5115654;28;19916;-72
2022/01/19 02:50:21;;;;;;;;;;;;;;;;;;5082753;28;19923;-72
2022/01/19 02:52:46;;;;;;;;;;;;;;;;;;5115198;28;20006;-72
2022/01/19 02:55:11;;;;;;;;;;;;;;;;;;5115373;28;20015;-72
2022/01/19 02:57:38;;;;;;;;;;;;;;;;;;5113966;28;19916;-72
2022/01/19 03:11:03;;;;;;;;;;;;;;;;;;5113872;28;19916;-72
2022/01/19 03:13:29;;;;;;;;;;;;;;;;;;5113522;28;20040;-72
2022/01/19 03:15:54;;;;;;;;;;;;;;;;;;5113442;28;19916;-73
2022/01/19 03:18:19;;;;;;;;;;;;;;;;;;5113561;28;19915;-72
2022/01/19 03:20:45;;;;;;;;;;;;;;;;;;5113411;28;19942;-72
2022/01/19 03:23:18;;;;;;;;;;;;;;;;;;5114735;28;20010;-72
2022/01/19 03:25:44;;;;;;;;;;;;;;;;;;5113289;28;19923;-74
2022/01/19 03:28:09;;;;;;;;;;;;;;;;;;5113304;28;19916;-73
2022/01/19 03:30:36;;;;;;;;;;;;;;;;;;5096464;28;19920;-73
2022/01/19 03:33:01;;;;;;;;;;;;;;;;;;5112745;28;20416;-74
2022/01/19 03:35:27;;;;;;;;;;;;;;;;;;5112128;28;20060;-74
2022/01/19 03:37:52;;;;;;;;;;;;;;;;;;5114585;28;20369;-74
2022/01/19 03:40:18;;;;;;;;;;;;;;;;;;5113089;28;20373;-73
2022/01/19 03:42:43;;;;;;;;;;;;;;;;;;5112984;28;20353;-74
2022/01/19 03:45:10;;;;;;;;;;;;;;;;;;5096274;28;19915;-74
2022/01/19 03:47:42;;;;;;;;;;;;;;;;;;5113159;28;19969;-74
2022/01/19 03:50:08;;;;;;;;;;;;;;;;;;5112555;28;19919;-74
2022/01/19 03:52:34;;;;;;;;;;;;;;;;;;5111489;28;19915;-74
2022/01/19 03:54:59;;;;;;;;;;;;;;;;;;5114329;28;19958;-73
2022/01/19 03:57:24;;;;;;;;;;;;;;;;;;5111647;28;19916;-73
2022/01/19 03:59:50;;;;;;;;;;;;;;;;;;5113605;28;19942;-73
2022/01/19 04:02:15;;;;;;;;;;;;;;;;;;5112773;28;19916;-73
2022/01/19 04:04:59;;;;;;;;;;;;;;;;;;5112887;28;20300;-73
2022/01/19 04:07:25;;;;;;;;;;;;;;;;;;5114113;28;19955;-73
2022/01/19 04:09:50;;;;;;;;;;;;;;;;;;5114242;28;19976;-73
2022/01/19 04:12:30;;;;;;;;;;;;;;;;;;5095495;28;20357;-73
2022/01/19 04:14:55;;;;;;;;;;;;;;;;;;5112738;28;20010;-73
2022/01/19 04:17:21;;;;;;;;;;;;;;;;;;5112775;28;20027;-73
2022/01/19 04:19:48;;;;;;;;;;;;;;;;;;5112946;28;19958;-73
2022/01/19 04:22:25;;;;;;;;;;;;;;;;;;5112776;28;19958;-73
2022/01/19 04:24:55;;;;;;;;;;;;;;;;;;5112511;28;20250;-73
2022/01/19 04:30:00;;;;;;;;;;;;;;;;;;5112523;28;20289;-73
2022/01/19 04:34:56;;;;;;;;;;;;;;;;;;5112999;28;20257;-73
2022/01/19 04:37:39;;;;;;;;;;;;;;;;;;5112634;28;20006;-73
2022/01/19 04:48:37;;;;;;;;;;;;;;;;;;5091523;27;20002;-73
2022/01/19 05:02:43;;;;;;;;;;;;;;;;;;5114948;27;20416;-73
2022/01/19 05:05:19;;;;;;;;;;;;;;;;;;5119525;27;19915;-73
2022/01/19 05:15:41;;;;;;;;;;;;;;;;;;5119563;27;20273;-73
2022/01/19 05:18:11;;;;;;;;;;;;;;;;;;5119021;27;19916;-73
2022/01/19 05:20:37;;;;;;;;;;;;;;;;;;5119117;27;20014;-73
2022/01/19 05:23:03;;;;;;;;;;;;;;;;;;5118987;27;20003;-74
2022/01/19 05:25:28;;;;;;;;;;;;;;;;;;5118722;27;19916;-73
2022/01/19 05:28:03;;;;;;;;;;;;;;;;;;5119196;27;19919;-73
2022/01/19 05:30:29;;;;;;;;;;;;;;;;;;5119125;27;19984;-73
2022/01/19 05:32:54;;;;;;;;;;;;;;;;;;5119006;27;19915;-73
2022/01/19 05:35:20;;;;;;;;;;;;;;;;;;5118911;27;19921;-73
2022/01/19 05:37:56;;;;;;;;;;;;;;;;;;5119050;27;19912;-73
2022/01/19 05:40:44;;;;;;;;;;;;;;;;;;5126186;27;19920;-73
2022/01/19 05:43:10;;;;;;;;;;;;;;;;;;5137166;27;19916;-73
2022/01/19 05:45:36;;;;;;;;;;;;;;;;;;5118804;27;19938;-73
2022/01/19 05:48:07;;;;;;;;;;;;;;;;;;5118942;27;19918;-73
2022/01/19 05:50:33;;;;;;;;;;;;;;;;;;5116449;27;19923;-73
2022/01/19 05:53:02;;;;;;;;;;;;;;;;;;5134571;27;19916;-73
2022/01/19 05:55:28;;;;;;;;;;;;;;;;;;5118264;27;19915;-73
2022/01/19 05:57:53;;;;;;;;;;;;;;;;;;5117689;27;20373;-73
2022/01/19 06:00:19;;;;;;;;;;;;;;;;;;5118473;27;19926;-73
2022/01/19 06:02:50;;;;;;;;;;;;;;;;;;5136636;27;19922;-73
2022/01/19 06:05:21;;;;;;;;;;;;;;;;;;5118454;27;19919;-73
2022/01/19 06:08:16;;;;;;;;;;;;;;;;;;5118428;27;19923;-73
2022/01/19 06:10:54;;;;;;;;;;;;;;;;;;5102506;27;20002;-73
2022/01/19 06:13:20;;;;;;;;;;;;;;;;;;5118121;27;19971;-73
2022/01/19 06:15:46;;;;;;;;;;;;;;;;;;5118326;27;19966;-73
2022/01/19 06:18:12;;;;;;;;;;;;;;;;;;5136623;27;19920;-73
2022/01/19 06:20:38;;;;;;;;;;;;;;;;;;5136474;27;20357;-73
2022/01/19 06:23:03;;;;;;;;;;;;;;;;;;5136332;27;19957;-72
2022/01/19 06:25:30;;;;;;;;;;;;;;;;;;5101167;27;19915;-73
2022/01/19 06:27:56;;;;;;;;;;;;;;;;;;5136483;27;19915;-73
2022/01/19 06:30:22;;;;;;;;;;;;;;;;;;5136413;27;20010;-73
2022/01/19 06:32:47;;;;;;;;;;;;;;;;;;5116749;27;19998;-73
2022/01/19 06:35:13;;;;;;;;;;;;;;;;;;5117398;27;19916;-73
2022/01/19 06:37:59;;;;;;;;;;;;;;;;;;5135624;27;19922;-73
2022/01/19 06:40:47;;;;;;;;;;;;;;;;;;5117965;27;19948;-73
2022/01/19 06:43:12;;;;;;;;;;;;;;;;;;5100678;27;19919;-72
2022/01/19 06:45:37;;;;;;;;;;;;;;;;;;5135890;27;20384;-73
2022/01/19 06:48:03;;;;;;;;;;;;;;;;;;5117670;27;19915;-72
2022/01/19 06:50:31;;;;;;;;;;;;;;;;;;5117283;27;19934;-74
2022/01/19 06:52:57;;;;;;;;;;;;;;;;;;5117659;27;20348;-73
2022/01/19 06:55:23;;;;;;;;;;;;;;;;;;5117547;27;19923;-73
2022/01/19 06:57:49;;;;;;;;;;;;;;;;;;5117438;27;20381;-72
2022/01/19 07:00:32;;;;;;;;;;;;;;;;;;5135609;27;20020;-73
2022/01/19 07:02:58;;;;;;;;;;;;;;;;;;5136112;27;19953;-72
2022/01/19 07:05:43;;;;;;;;;;;;;;;;;;5116922;27;19915;-73
2022/01/19 07:08:27;;;;;;;;;;;;;;;;;;5119207;27;19968;-72
2022/01/19 07:10:53;;;;;;;;;;;;;;;;;;5135467;27;19919;-73
2022/01/19 07:13:20;;;;;;;;;;;;;;;;;;5100414;27;19922;-72
2022/01/19 07:15:45;;;;;;;;;;;;;;;;;;5116727;27;19915;-73
2022/01/19 07:18:11;;;;;;;;;;;;;;;;;;5116444;27;20060;-73
2022/01/19 07:20:37;;;;;;;;;;;;;;;;;;5116995;27;19926;-73
2022/01/19 07:23:02;;;;;;;;;;;;;;;;;;5117085;27;20347;-73
2022/01/19 07:25:29;;;;;;;;;;;;;;;;;;5116901;27;19915;-73
2022/01/19 07:27:55;;;;;;;;;;;;;;;;;;5117026;27;20411;-72
2022/01/19 07:30:21;;;;;;;;;;;;;;;;;;5116772;27;19919;-75
2022/01/19 07:32:48;;;;;;;;;;;;;;;;;;5117035;27;19922;-73
2022/01/19 07:35:14;;;;;;;;;;;;;;;;;;5116741;28;20299;-73
2022/01/19 07:37:41;;;;;;;;;;;;;;;;;;5116882;27;20265;-73
2022/01/19 07:40:07;;;;;;;;;;;;;;;;;;5116779;27;19925;-73
2022/01/19 07:42:33;;;;;;;;;;;;;;;;;;5116730;27;19915;-72
2022/01/19 07:45:26;;;;;;;;;;;;;;;;;;5116812;27;20311;-73
2022/01/19 07:48:10;;;;;;;;;;;;;;;;;;5135184;27;19922;-73
2022/01/19 07:50:54;;;;;;;;;;;;;;;;;;5135102;27;19966;-73
2022/01/19 07:53:52;;;;;;;;;;;;;;;;;;5088630;27;19916;-73
2022/01/19 07:56:40;;;;;;;;;;;;;;;;;;5095976;27;20010;-73
2022/01/19 07:59:17;;;;;;;;;;;;;;;;;;5116318;27;19927;-74
2022/01/19 08:01:47;;;;;;;;;;;;;;;;;;5116284;28;20445;-73
2022/01/19 08:04:42;;;;;;;;;;;;;;;;;;5120245;27;19942;-76
2022/01/19 08:07:10;;;;;;;;;;;;;;;;;;5115329;28;20402;-73
2022/01/19 08:09:35;;;;;;;;;;;;;;;;;;5116205;28;19916;-73
2022/01/19 08:12:01;;;;;;;;;;;;;;;;;;5116134;28;19987;-73
2022/01/19 08:14:28;;;;;;;;;;;;;;;;;;5115671;28;20380;-73
2022/01/19 08:16:55;;;;;;;;;;;;;;;;;;5115737;28;19916;-73
2022/01/19 08:19:22;;;;;;;;;;;;;;;;;;5115906;27;19924;-74
2022/01/19 08:21:47;;;;;;;;;;;;;;;;;;5119981;27;19968;-73
2022/01/19 08:24:13;;;;;;;;;;;;;;;;;;5120361;27;19915;-73
2022/01/19 08:26:39;;;;;;;;;;;;;;;;;;5120133;27;19929;-73
2022/01/19 08:29:09;;;;;;;;;;;;;;;;;;5120108;27;19915;-73
2022/01/19 08:31:35;;;;;;;;;;;;;;;;;;5119398;27;19960;-74
2022/01/19 08:34:06;;;;;;;;;;;;;;;;;;5138973;27;19916;-74
2022/01/19 08:36:52;;;;;;;;;;;;;;;;;;5096059;28;19968;-74
2022/01/19 08:39:20;;;;;;;;;;;;;;;;;;5099606;28;20369;-74
2022/01/19 08:41:47;;;;;;;;;;;;;;;;;;5099877;28;19920;-74
2022/01/19 08:44:13;;;;;;;;;;;;;;;;;;5099868;28;20428;-74
2022/01/19 08:46:41;;;;;;;;;;;;;;;;;;5099781;28;20269;-74
2022/01/19 08:49:26;;;;;;;;;;;;;;;;;;5116956;28;19926;-74
2022/01/19 08:52:10;;;;;;;;;;;;;;;;;;5116838;28;19974;-74
2022/01/19 08:54:42;;;;;;;;;;;;;;;;;;5098387;28;19919;-74
2022/01/19 08:57:10;;;;;;;;;;;;;;;;;;5098878;28;20281;-74
2022/01/19 08:59:36;;;;;;;;;;;;;;;;;;5117335;28;19926;-74
2022/01/19 09:02:01;;;;;;;;;;;;;;;;;;5117465;28;20289;-74
2022/01/19 09:04:26;;;;;;;;;;;;;;;;;;5117684;28;19967;-74
2022/01/19 09:06:53;;;;;;;;;;;;;;;;;;5137618;27;19922;-74
2022/01/19 09:09:19;;;;;;;;;;;;;;;;;;5138138;27;20284;-74
2022/01/19 09:11:44;;;;;;;;;;;;;;;;;;5138126;27;20002;-74
2022/01/19 09:14:10;;;;;;;;;;;;;;;;;;5119740;27;20293;-74
2022/01/19 09:16:36;;;;;;;;;;;;;;;;;;5119603;27;19923;-74
2022/01/19 09:19:03;;;;;;;;;;;;;;;;;;5136990;27;19992;-74
2022/01/19 09:21:28;;;;;;;;;;;;;;;;;;5137246;27;19916;-74
2022/01/19 09:23:53;;;;;;;;;;;;;;;;;;5137622;27;19938;-73
2022/01/19 09:26:19;;;;;;;;;;;;;;;;;;5137656;27;19923;-74
2022/01/19 09:28:44;;;;;;;;;;;;;;;;;;5137687;27;19919;-74
2022/01/19 09:31:11;;;;;;;;;;;;;;;;;;5136788;27;19919;-74
2022/01/19 09:33:36;;;;;;;;;;;;;;;;;;5137050;27;19926;-74
2022/01/19 09:38:29;;;;;;;;;;;;;;;;;;5137318;27;19923;-74
2022/01/19 09:40:55;;;;;;;;;;;;;;;;;;5137268;27;20272;-74
2022/01/19 09:43:22;;;;;;;;;;;;;;;;;;5137447;27;19937;-75
2022/01/19 09:45:56;;;;;;;;;;;;;;;;;;5137282;27;20006;-75
2022/01/19 09:48:21;;;;;;;;;;;;;;;;;;5136467;27;19926;-75
2022/01/19 09:50:47;;;;;;;;;;;;;;;;;;5136863;27;19923;-74
2022/01/19 09:53:12;;;;;;;;;;;;;;;;;;5136743;27;19919;-75
2022/01/19 09:55:38;;;;;;;;;;;;;;;;;;5136952;27;19923;-76
2022/01/19 09:58:04;;;;;;;;;;;;;;;;;;5136656;27;20369;-76
2022/01/19 10:00:29;;;;;;;;;;;;;;;;;;5135923;27;19919;-76
2022/01/19 10:03:11;;;;;;;;;;;;;;;;;;5134971;27;19922;-77
2022/01/19 10:05:40;;;;;;;;;;;;;;;;;;5117876;27;20014;-76
2022/01/19 10:08:06;;;;;;;;;;;;;;;;;;5128137;27;19923;-76
2022/01/19 10:10:31;;;;;;;;;;;;;;;;;;5115723;28;20301;-77
2022/01/19 10:18:33;;;;;;;;;;;;;;;;;;5114286;28;19916;-76
2022/01/19 10:21:05;;;;;;;;;;;;;;;;;;5080802;28;19979;-76
2022/01/19 10:23:33;;;;;;;;;;;;;;;;;;5097228;28;20010;-76
2022/01/19 10:25:58;;;;;;;;;;;;;;;;;;5121232;27;19915;-74
2022/01/19 10:28:23;;;;;;;;;;;;;;;;;;5136242;27;20011;-81
2022/01/19 10:30:49;;;;;;;;;;;;;;;;;;5137895;27;19915;-78
2022/01/19 10:33:18;;;;;;;;;;;;;;;;;;5139306;27;20375;-81
2022/01/19 10:35:44;;;;;;;;;;;;;;;;;;5120276;27;19922;-79
2022/01/19 10:38:11;;;;;;;;;;;;;;;;;;5139627;27;19923;-77
2022/01/19 10:40:37;;;;;;;;;;;;;;;;;;5136208;27;19920;-80
2022/01/19 10:43:23;;;;;;;;;;;;;;;;;;5139005;27;19915;-76
2022/01/19 10:45:48;;;;;;;;;;;;;;;;;;5118184;27;19947;-77
2022/01/19 10:48:28;;;;;;;;;;;;;;;;;;5117078;27;19964;-76
2022/01/19 10:51:04;;;;;;;;;;;;;;;;;;5135685;27;20380;-76
2022/01/19 10:53:30;;;;;;;;;;;;;;;;;;5135780;27;20311;-76
2022/01/19 10:55:57;;;;;;;;;;;;;;;;;;5135528;27;19922;-77
2022/01/19 10:58:22;;;;;;;;;;;;;;;;;;5135393;27;20018;-76
2022/01/19 11:00:49;;;;;;;;;;;;;;;;;;5117238;27;20006;-75
2022/01/19 11:03:17;;;;;;;;;;;;;;;;;;5135628;27;19916;-75
2022/01/19 11:05:52;;;;;;;;;;;;;;;;;;5135646;27;19926;-76
2022/01/19 11:08:19;;;;;;;;;;;;;;;;;;5135551;27;20274;-75
2022/01/19 11:10:48;;;;;;;;;;;;;;;;;;5117147;27;19915;-76
2022/01/19 11:13:15;;;;;;;;;;;;;;;;;;5137867;27;19922;-81
2022/01/19 11:15:44;;;;;;;;;;;;;;;;;;5143220;27;20324;-80
2022/01/19 11:18:09;;;;;;;;;;;;;;;;;;5140465;27;19923;-75
2022/01/19 11:20:44;;;;;;;;;;;;;;;;;;5135661;27;19915;-75
2022/01/19 11:23:16;;;;;;;;;;;;;;;;;;5116914;27;19916;-75
2022/01/19 11:25:41;;;;;;;;;;;;;;;;;;5117069;27;20037;-75
2022/01/19 11:28:07;;;;;;;;;;;;;;;;;;5135226;27;19966;-75
2022/01/19 11:30:33;;;;;;;;;;;;;;;;;;5116917;27;19919;-75
2022/01/19 11:33:24;;;;;;;;;;;;;;;;;;5135263;27;20447;-75
2022/01/19 11:35:51;;;;;;;;;;;;;;;;;;5135244;27;19915;-75
2022/01/19 11:38:26;;;;;;;;;;;;;;;;;;5135097;27;20296;-75
2022/01/19 11:40:52;;;;;;;;;;;;;;;;;;5135008;27;19984;-75
2022/01/19 11:43:19;;;;;;;;;;;;;;;;;;5135156;27;20353;-75
2022/01/19 11:45:44;;;;;;;;;;;;;;;;;;5135108;27;20007;-75
2022/01/19 11:48:17;;;;;;;;;;;;;;;;;;5135117;27;19915;-75
2022/01/19 11:50:43;;;;;;;;;;;;;;;;;;5093862;28;19967;-75
2022/01/19 11:53:11;;;;;;;;;;;;;;;;;;5092800;28;19962;-75
2022/01/19 11:55:36;;;;;;;;;;;;;;;;;;5093021;28;19916;-75
2022/01/19 11:58:20;;;;;;;;;;;;;;;;;;5094268;28;20007;-75
2022/01/19 12:00:47;;;;;;;;;;;;;;;;;;5093854;28;19921;-75
2022/01/19 12:03:21;;;;;;;;;;;;;;;;;;5093774;28;19917;-75
2022/01/19 12:05:47;;;;;;;;;;;;;;;;;;5094003;28;19916;-75
2022/01/19 12:08:31;;;;;;;;;;;;;;;;;;5093902;28;19941;-75
2022/01/19 12:10:59;;;;;;;;;;;;;;;;;;5092780;28;19920;-75
2022/01/19 12:13:31;;;;;;;;;;;;;;;;;;5093839;28;19916;-75
2022/01/19 12:16:06;;;;;;;;;;;;;;;;;;5093745;28;19923;-75
2022/01/19 12:18:41;;;;;;;;;;;;;;;;;;5093546;28;19981;-75
2022/01/19 12:21:08;;;;;;;;;;;;;;;;;;5093769;28;19955;-75
2022/01/19 12:23:34;;;;;;;;;;;;;;;;;;5093672;28;19920;-75
2022/01/19 12:26:00;;;;;;;;;;;;;;;;;;5093606;28;19922;-75
2022/01/19 12:28:58;;;;;;;;;;;;;;;;;;5093561;28;19920;-75
2022/01/19 12:31:33;;;;;;;;;;;;;;;;;;5048920;28;20392;-75
2022/01/19 12:34:11;;;;;;;;;;;;;;;;;;5093823;28;20407;-75
2022/01/19 12:36:39;;;;;;;;;;;;;;;;;;5093677;28;20003;-75
2022/01/19 12:39:22;;;;;;;;;;;;;;;;;;5093461;28;20377;-75
2022/01/19 12:42:08;;;;;;;;;;;;;;;;;;5093610;28;19959;-75
2022/01/19 12:44:41;;;;;;;;;;;;;;;;;;5093406;28;19916;-75
2022/01/19 12:47:24;;;;;;;;;;;;;;;;;;5093449;28;19923;-75
2022/01/19 12:49:52;;;;;;;;;;;;;;;;;;5120196;28;19920;-74
2022/01/19 12:52:18;;;;;;;;;;;;;;;;;;5134298;28;19916;-75
2022/01/19 12:54:46;;;;;;;;;;;;;;;;;;5134262;28;20011;-75
2022/01/19 12:57:16;;;;;;;;;;;;;;;;;;5094988;28;19915;-75
2022/01/19 12:59:42;;;;;;;;;;;;;;;;;;5113713;28;19924;-75
2022/01/19 13:02:08;;;;;;;;;;;;;;;;;;5113999;28;19915;-75
2022/01/19 13:04:34;;;;;;;;;;;;;;;;;;5113683;28;20061;-75
2022/01/19 13:07:20;;;;;;;;;;;;;;;;;;5118287;27;19916;-75
2022/01/19 13:10:02;;;;;;;;;;;;;;;;;;5138059;27;20301;-76
2022/01/19 13:12:49;;;;;;;;;;;;;;;;;;5137917;27;20052;-75
2022/01/19 13:15:15;;;;;;;;;;;;;;;;;;5119683;27;19922;-74
2022/01/19 13:17:44;;;;;;;;;;;;;;;;;;5125473;27;19916;-75
2022/01/19 13:20:11;;;;;;;;;;;;;;;;;;5134410;27;19926;-74
2022/01/19 13:23:09;;;;;;;;;;;;;;;;;;5113311;27;20280;-75
2022/01/19 13:25:34;;;;;;;;;;;;;;;;;;5067106;28;19916;-75
2022/01/19 13:28:00;;;;;;;;;;;;;;;;;;5129661;27;19922;-74
2022/01/19 13:30:28;;;;;;;;;;;;;;;;;;5123986;27;20002;-74
2022/01/19 13:32:54;;;;;;;;;;;;;;;;;;5136849;27;19916;-74
2022/01/19 13:35:20;;;;;;;;;;;;;;;;;;5137606;27;19960;-73
2022/01/19 13:37:55;;;;;;;;;;;;;;;;;;5119079;27;19922;-74
2022/01/19 13:40:23;;;;;;;;;;;;;;;;;;5115321;27;19972;-74
2022/01/19 13:43:04;;;;;;;;;;;;;;;;;;5101498;28;20323;-74
2022/01/19 13:45:36;;;;;;;;;;;;;;;;;;5130156;27;20361;-74
2022/01/19 13:50:43;;;;;;;;;;;;;;;;;;5116293;28;19926;-74
2022/01/19 13:53:09;;;;;;;;;;;;;;;;;;5116808;28;19931;-74
2022/01/19 13:55:34;;;;;;;;;;;;;;;;;;5097711;28;19916;-74
2022/01/19 13:58:09;;;;;;;;;;;;;;;;;;5116423;28;20447;-73
2022/01/19 14:00:34;;;;;;;;;;;;;;;;;;5116011;28;19965;-73
2022/01/19 14:03:03;;;;;;;;;;;;;;;;;;5116603;28;19919;-74
2022/01/19 14:05:39;;;;;;;;;;;;;;;;;;5116490;28;19960;-74
2022/01/19 14:08:04;;;;;;;;;;;;;;;;;;5127304;27;19915;-73
2022/01/19 14:10:38;;;;;;;;;;;;;;;;;;5136951;27;19967;-74
2022/01/19 14:13:19;;;;;;;;;;;;;;;;;;5136849;27;19915;-73
2022/01/19 14:15:45;;;;;;;;;;;;;;;;;;5135783;27;19926;-74
2022/01/19 14:18:11;;;;;;;;;;;;;;;;;;5136332;27;19911;-73
2022/01/19 14:20:36;;;;;;;;;;;;;;;;;;5136753;27;20011;-74
2022/01/19 14:23:11;;;;;;;;;;;;;;;;;;5136671;27;19968;-74
2022/01/19 14:25:37;;;;;;;;;;;;;;;;;;5136488;27;19915;-74
2022/01/19 14:28:11;;;;;;;;;;;;;;;;;;5136508;27;19922;-74
2022/01/19 14:30:37;;;;;;;;;;;;;;;;;;5136396;27;19960;-74
2022/01/19 14:33:09;;;;;;;;;;;;;;;;;;5136537;27;19915;-74
2022/01/19 14:35:35;;;;;;;;;;;;;;;;;;5136411;27;19922;-74
2022/01/19 14:38:03;;;;;;;;;;;;;;;;;;5136303;27;19915;-74
2022/01/19 14:40:29;;;;;;;;;;;;;;;;;;5117812;27;19919;-73
2022/01/19 14:42:55;;;;;;;;;;;;;;;;;;5136452;27;19919;-74
2022/01/19 14:45:28;;;;;;;;;;;;;;;;;;5117906;27;19964;-73
2022/01/19 14:47:54;;;;;;;;;;;;;;;;;;5135932;27;19915;-74
2022/01/19 14:50:33;;;;;;;;;;;;;;;;;;5135882;27;19919;-74
2022/01/19 14:52:59;;;;;;;;;;;;;;;;;;5136011;27;20010;-74
2022/01/19 14:55:26;;;;;;;;;;;;;;;;;;5136298;27;20007;-74
2022/01/19 14:57:52;;;;;;;;;;;;;;;;;;5136034;27;19966;-74
2022/01/19 15:00:18;;;;;;;;;;;;;;;;;;5135679;27;19970;-74
2022/01/19 15:02:48;;;;;;;;;;;;;;;;;;5135860;27;19968;-74
2022/01/19 15:05:13;;;;;;;;;;;;;;;;;;5135709;27;20368;-74
2022/01/19 15:07:40;;;;;;;;;;;;;;;;;;5135920;27;20018;-74
2022/01/19 15:10:06;;;;;;;;;;;;;;;;;;5135759;27;20384;-74
2022/01/19 15:12:32;;;;;;;;;;;;;;;;;;5136238;27;19915;-74
2022/01/19 15:14:57;;;;;;;;;;;;;;;;;;5135980;27;19915;-74
2022/01/19 15:17:22;;;;;;;;;;;;;;;;;;5135725;27;19916;-74
2022/01/19 15:19:48;;;;;;;;;;;;;;;;;;5135592;27;19920;-74
2022/01/19 15:22:13;;;;;;;;;;;;;;;;;;5135668;27;20325;-74
2022/01/19 15:24:38;;;;;;;;;;;;;;;;;;5135581;27;20252;-74
2022/01/19 15:27:04;;;;;;;;;;;;;;;;;;5135503;27;19916;-74
2022/01/19 15:29:29;;;;;;;;;;;;;;;;;;5134335;27;19922;-74
2022/01/19 15:31:55;;;;;;;;;;;;;;;;;;5135528;27;20356;-73
2022/01/19 15:34:20;;;;;;;;;;;;;;;;;;5117112;27;19974;-73
2022/01/19 15:36:46;;;;;;;;;;;;;;;;;;5135325;27;19916;-74
2022/01/19 15:39:12;;;;;;;;;;;;;;;;;;5116776;27;19926;-74
2022/01/19 15:41:37;;;;;;;;;;;;;;;;;;5117012;27;20265;-74
2022/01/19 15:44:03;;;;;;;;;;;;;;;;;;5135162;27;20002;-74
2022/01/19 15:46:29;;;;;;;;;;;;;;;;;;5135111;27;19968;-73
2022/01/19 15:48:54;;;;;;;;;;;;;;;;;;5134896;27;20328;-74
2022/01/19 15:51:19;;;;;;;;;;;;;;;;;;5135124;27;20275;-74
2022/01/19 15:53:44;;;;;;;;;;;;;;;;;;5135045;27;19967;-73
2022/01/19 15:56:09;;;;;;;;;;;;;;;;;;5135002;27;19916;-74
2022/01/19 15:58:35;;;;;;;;;;;;;;;;;;5134401;27;20006;-73
2022/01/19 16:01:00;;;;;;;;;;;;;;;;;;5134639;27;19919;-74
2022/01/19 16:03:25;;;;;;;;;;;;;;;;;;5134705;27;19951;-73
2022/01/19 16:05:52;;;;;;;;;;;;;;;;;;5134905;27;19954;-74
2022/01/19 16:08:17;;;;;;;;;;;;;;;;;;5134983;27;20338;-74
2022/01/19 16:10:44;;;;;;;;;;;;;;;;;;5134827;27;19916;-74
2022/01/19 16:13:10;;;;;;;;;;;;;;;;;;5134722;28;19916;-73
2022/01/19 16:15:35;;;;;;;;;;;;;;;;;;5134495;28;19918;-74
2022/01/19 16:18:01;;;;;;;;;;;;;;;;;;5134460;27;19926;-73
2022/01/19 16:20:26;;;;;;;;;;;;;;;;;;5137246;28;19926;-73
2022/01/19 16:28:19;;;;;;;;;;;;;;;;;;5134492;27;19922;-74
2022/01/19 16:30:48;;;;;;;;;;;;;;;;;;5116216;28;20006;-74
2022/01/19 16:33:13;;;;;;;;;;;;;;;;;;5134437;28;19919;-74
2022/01/19 16:35:38;;;;;;;;;;;;;;;;;;5134587;28;20246;-73
2022/01/19 16:38:04;;;;;;;;;;;;;;;;;;5134579;27;19923;-74
2022/01/19 16:40:29;;;;;;;;;;;;;;;;;;5116247;27;19920;-73
2022/01/19 16:42:55;;;;;;;;;;;;;;;;;;5138679;27;19923;-74
2022/01/19 16:45:21;;;;;;;;;;;;;;;;;;5138537;27;19915;-74
2022/01/19 16:47:53;;;;;;;;;;;;;;;;;;5120087;27;20003;-73
2022/01/19 16:50:19;;;;;;;;;;;;;;;;;;5138149;27;19958;-74
2022/01/19 16:52:45;;;;;;;;;;;;;;;;;;5138342;27;20010;-73
2022/01/19 16:55:10;;;;;;;;;;;;;;;;;;5119919;27;20002;-74
2022/01/19 16:57:35;;;;;;;;;;;;;;;;;;5138356;27;19915;-74
2022/01/19 17:00:03;;;;;;;;;;;;;;;;;;5120211;27;20044;-74
2022/01/19 17:02:29;;;;;;;;;;;;;;;;;;5137909;27;19916;-73
2022/01/19 17:04:54;;;;;;;;;;;;;;;;;;5138221;27;19916;-74
2022/01/19 17:07:19;;;;;;;;;;;;;;;;;;5138048;27;19915;-74
2022/01/19 17:09:45;;;;;;;;;;;;;;;;;;5119654;27;19916;-74
2022/01/19 17:12:17;;;;;;;;;;;;;;;;;;5138067;27;19954;-73
2022/01/19 17:14:43;;;;;;;;;;;;;;;;;;5138093;27;20312;-74
2022/01/19 17:17:14;;;;;;;;;;;;;;;;;;5137889;27;19911;-73
2022/01/19 17:19:40;;;;;;;;;;;;;;;;;;5137922;27;19919;-73
2022/01/19 17:22:16;;;;;;;;;;;;;;;;;;5137340;27;19916;-76
2022/01/19 17:24:44;;;;;;;;;;;;;;;;;;5138876;27;19926;-79
2022/01/19 17:27:10;;;;;;;;;;;;;;;;;;5120281;27;19915;-76
2022/01/19 17:29:35;;;;;;;;;;;;;;;;;;5120589;27;20302;-76
2022/01/19 17:32:01;;;;;;;;;;;;;;;;;;5137684;27;20311;-76
2022/01/19 17:34:26;;;;;;;;;;;;;;;;;;5137495;27;19915;-76
2022/01/19 17:36:52;;;;;;;;;;;;;;;;;;5137557;27;19915;-77
2022/01/19 17:39:17;;;;;;;;;;;;;;;;;;5138312;27;19919;-77
2022/01/19 17:41:43;;;;;;;;;;;;;;;;;;5137739;27;19923;-77
2022/01/19 17:44:08;;;;;;;;;;;;;;;;;;5120124;27;19916;-78
2022/01/19 17:46:43;;;;;;;;;;;;;;;;;;5139033;27;19922;-78
2022/01/19 17:52:08;;;;;;;;;;;;;;;;;;5118642;28;19988;-77
2022/01/19 17:54:35;;;;;;;;;;;;;;;;;;5115366;28;21264;-76
2022/01/19 17:57:00;;;;;;;;;;;;;;;;;;5116543;28;19916;-76
2022/01/19 17:59:26;;;;;;;;;;;;;;;;;;5116325;28;19928;-76
2022/01/19 18:01:51;;;;;;;;;;;;;;;;;;5116531;28;19926;-77
2022/01/19 18:04:16;;;;;;;;;;;;;;;;;;5116664;28;20388;-76
2022/01/19 18:06:42;;;;;;;;;;;;;;;;;;5116731;28;20334;-77
2022/01/19 18:09:08;;;;;;;;;;;;;;;;;;5116293;27;19963;-77
2022/01/19 18:11:34;;;;;;;;;;;;;;;;;;5116401;28;20365;-76
2022/01/19 18:14:00;;;;;;;;;;;;;;;;;;5116230;28;19916;-76
2022/01/19 18:16:26;;;;;;;;;;;;;;;;;;5116221;28;19916;-77
2022/01/19 18:18:52;;;;;;;;;;;;;;;;;;5116185;28;19919;-77
2022/01/19 18:21:17;;;;;;;;;;;;;;;;;;5116411;28;19972;-77
2022/01/19 18:23:46;;;;;;;;;;;;;;;;;;5117174;28;19923;-77
2022/01/19 18:26:12;;;;;;;;;;;;;;;;;;5115175;28;20038;-77
2022/01/19 18:28:37;;;;;;;;;;;;;;;;;;5116127;28;19916;-77
2022/01/19 18:31:03;;;;;;;;;;;;;;;;;;5115105;28;19938;-78
2022/01/19 18:33:28;;;;;;;;;;;;;;;;;;5115340;28;19923;-78